Terminal Aerodrome Forecast
Issued by NWS

Home | Current Version | Previous Version | Graphics & Text | Print | Product List | Glossary On
Versions: 1 2 3 4 5 6 7 8 9 10 11 12 13 14 15 16 17
000
FTUS41 KCLE 212323
TAFFDY
TAF
KFDY 212323Z 2200/2224 24010KT P6SM VCTS OVC045CB
     FM220100 21005KT P6SM SCT040 BKN080
     FM221100 23010KT 6SM BR VCSH BKN035
      TEMPO 2211/2212 5SM BR
     FM221500 25012KT P6SM BKN040=

USA.gov is the U.S. government's official web portal to all federal, state and local government web resources and services.